LGSA/CHQ METAR and TAF weather

Enter ICAO airport designator
Station Type Date Time Source
LGSA METAR 2021/07/29 17:20 UTC NOAA

LGSA 291720Z 30006KT CAVOK 31/20 Q1010


Station Type Date Time Source
LGSA Decoded METAR 2021/07/29 17:20 UTC NOAA

Souda Airport , Greece (LGSA) 35-29N 024-07E 151M
Jul 29, 2021 - 01:20 PM EDT / 2021.07.29 1720 UTC
Wind: from the WNW (300 degrees) at 7 MPH (6 KT):0
Visibility: greater than 7 mile(s):0
Temperature: 87 F (31 C)
Dew Point: 68 F (20 C)
Relative Humidity: 52%
Pressure (altimeter): 29.83 in. Hg (1010 hPa)
ob: LGSA 291720Z 30006KT CAVOK 31/20 Q1010
cycle: 17

Station Type Date Time Source
LGSA TAF 2021/07/29 18:12 UTC NOAA

TAF LGSA 291700Z 2918/3018 28010KT CAVOK

Example: see airport list